Time;durP1;ratioP1;P1;durP2;ratioP2;P2;SDS_P1;SDS_P2;PMS_P1;PMS_P2;Temp;Humidity;BMP_temperature;BMP_pressure;BME280_temperature;BME280_humidity;BME280_pressure;Samples;Min_cycle;Max_cycle;Signal;HPM_P1;HPM_P2
2022/07/14 00:00:38;;;;;;;15.65;3.65;;;19.90;99.90;;;;;;4971111;28;20109;-55
2022/07/14 00:03:05;;;;;;;14.88;3.35;;;19.80;99.90;;;;;;4969517;28;20094;-57
2022/07/14 00:05:31;;;;;;;18.85;4.82;;;19.80;99.90;;;;;;4970834;28;20089;-55
2022/07/14 00:07:58;;;;;;;14.82;3.25;;;19.80;99.90;;;;;;4970654;28;20118;-56
2022/07/14 00:10:25;;;;;;;12.70;3.10;;;19.80;99.90;;;;;;4970584;28;20549;-55
2022/07/14 00:12:52;;;;;;;14.98;2.67;;;19.80;99.90;;;;;;4970576;28;20183;-55
2022/07/14 00:15:19;;;;;;;17.33;3.50;;;19.80;99.90;;;;;;4970592;28;20051;-54
2022/07/14 00:17:46;;;;;;;15.48;3.53;;;19.80;99.90;;;;;;4969485;28;20051;-54
2022/07/14 00:20:13;;;;;;;12.77;3.83;;;19.80;99.90;;;;;;4970317;28;20051;-53
2022/07/14 00:22:40;;;;;;;12.68;2.67;;;19.70;99.90;;;;;;4970141;28;20094;-55
2022/07/14 00:25:07;;;;;;;13.95;3.47;;;19.70;99.90;;;;;;4970477;28;20122;-56
2022/07/14 00:27:37;;;;;;;10.75;3.13;;;19.70;99.90;;;;;;4970253;28;20564;-55
2022/07/14 00:30:04;;;;;;;11.98;3.67;;;19.70;99.90;;;;;;4970114;28;20113;-53
2022/07/14 00:32:32;;;;;;;13.27;3.55;;;19.70;99.90;;;;;;4970185;28;20058;-55
2022/07/14 00:34:59;;;;;;;17.55;4.50;;;19.60;99.90;;;;;;4969748;28;20498;-54
2022/07/14 00:37:26;;;;;;;10.60;3.65;;;19.60;99.90;;;;;;4970358;28;20098;-56
2022/07/14 00:39:55;;;;;;;14.05;3.03;;;19.60;99.90;;;;;;4969684;28;20125;-51
2022/07/14 00:42:44;;;;;;;12.90;2.60;;;19.50;99.90;;;;;;4970069;28;20490;-55
2022/07/14 00:45:13;;;;;;;14.20;2.50;;;19.50;99.90;;;;;;4970015;28;20089;-55
2022/07/14 00:47:40;;;;;;;17.83;4.13;;;19.50;99.90;;;;;;4970252;28;20171;-53
2022/07/14 00:50:07;;;;;;;21.10;4.80;;;19.50;99.90;;;;;;4969969;28;20113;-54
2022/07/14 00:52:38;;;;;;;12.70;3.03;;;19.50;99.90;;;;;;4970244;28;20043;-54
2022/07/14 00:55:06;;;;;;;13.52;3.88;;;19.40;99.90;;;;;;4969634;28;20382;-55
2022/07/14 00:57:32;;;;;;;16.52;2.90;;;19.40;99.90;;;;;;4969856;28;20047;-55
2022/07/14 00:59:59;;;;;;;15.60;3.88;;;19.40;99.90;;;;;;4969762;28;20565;-56
2022/07/14 01:02:26;;;;;;;12.35;2.50;;;19.40;99.90;;;;;;4968586;28;20046;-55
2022/07/14 01:04:53;;;;;;;12.93;2.63;;;19.30;99.90;;;;;;4969843;28;20153;-56
2022/07/14 01:07:20;;;;;;;10.65;3.58;;;19.30;99.90;;;;;;4969616;28;20046;-52
2022/07/14 01:09:46;;;;;;;14.77;3.00;;;19.30;99.90;;;;;;4969616;28;20101;-54
2022/07/14 01:12:13;;;;;;;11.60;2.58;;;19.30;99.90;;;;;;4968023;28;20058;-55
2022/07/14 01:14:41;;;;;;;13.85;3.38;;;19.40;99.90;;;;;;4952227;28;20118;-55
2022/07/14 01:17:08;;;;;;;10.98;3.13;;;19.40;99.90;;;;;;4969485;28;20093;-55
2022/07/14 01:19:35;;;;;;;19.88;4.30;;;19.40;99.90;;;;;;4969633;28;20051;-54
2022/07/14 01:22:02;;;;;;;12.50;2.97;;;19.40;99.90;;;;;;4969671;28;20097;-54
2022/07/14 01:24:29;;;;;;;14.95;3.45;;;19.40;99.90;;;;;;4623029;28;10000270;-53
2022/07/14 01:26:56;;;;;;;19.20;3.78;;;19.40;99.90;;;;;;4967354;28;20042;-51
2022/07/14 01:29:24;;;;;;;14.00;3.13;;;19.30;99.90;;;;;;4969421;28;20414;-56
2022/07/14 01:31:51;;;;;;;11.50;3.58;;;19.30;99.90;;;;;;4965231;28;20249;-53
2022/07/14 01:34:18;;;;;;;16.10;5.25;;;19.30;99.90;;;;;;4969611;28;20109;-54
2022/07/14 01:36:46;;;;;;;12.13;3.20;;;19.20;99.90;;;;;;4969307;28;20506;-54
2022/07/14 01:39:13;;;;;;;16.35;3.22;;;19.20;99.90;;;;;;4969402;28;20054;-53
2022/07/14 01:41:40;;;;;;;14.77;4.40;;;19.10;99.90;;;;;;4969232;28;20097;-54
2022/07/14 01:44:07;;;;;;;13.70;2.83;;;19.00;99.90;;;;;;4966149;28;20046;-52
2022/07/14 01:46:34;;;;;;;13.85;3.05;;;19.00;99.90;;;;;;4968097;28;20560;-55
2022/07/14 01:49:01;;;;;;;14.45;2.90;;;19.00;99.90;;;;;;4969284;28;20082;-54
2022/07/14 01:51:27;;;;;;;10.98;3.85;;;19.00;99.90;;;;;;4969308;28;20399;-55
2022/07/14 01:53:54;;;;;;;10.07;2.78;;;19.10;99.90;;;;;;4968960;28;20058;-54
2022/07/14 01:56:22;;;;;;;17.75;3.75;;;19.20;99.90;;;;;;4969561;28;20097;-55
2022/07/14 01:58:48;;;;;;;14.73;2.72;;;19.30;99.90;;;;;;4969384;28;20051;-54
2022/07/14 02:04:02;;;;;;;15.45;3.47;;;19.40;99.90;;;;;;4969093;28;20046;-54
2022/07/14 02:06:29;;;;;;;12.15;3.53;;;19.40;99.90;;;;;;4969140;28;20114;-55
2022/07/14 02:08:59;;;;;;;11.60;3.55;;;19.40;99.90;;;;;;4969319;28;20102;-55
2022/07/14 02:14:11;;;;;;;9.35;2.67;;;19.30;99.90;;;;;;4968701;28;20054;-56
2022/07/14 02:16:38;;;;;;;15.55;3.10;;;19.20;99.90;;;;;;4969055;28;20093;-56
2022/07/14 02:19:05;;;;;;;14.70;3.55;;;19.20;99.90;;;;;;4967393;28;20062;-54
2022/07/14 02:21:32;;;;;;;16.42;3.85;;;19.30;99.90;;;;;;4966565;28;20109;-54
2022/07/14 02:23:59;;;;;;;13.73;4.32;;;19.30;99.90;;;;;;4969353;28;20078;-55
2022/07/14 02:26:26;;;;;;;11.80;3.83;;;19.30;99.90;;;;;;4969943;28;20109;-51
2022/07/14 02:28:53;;;;;;;14.98;3.03;;;19.30;99.90;;;;;;4969814;28;20054;-55
2022/07/14 02:31:20;;;;;;;13.50;4.28;;;19.40;99.90;;;;;;4969677;28;20050;-55
2022/07/14 02:33:48;;;;;;;15.20;3.33;;;19.30;99.90;;;;;;4969708;28;20078;-55
2022/07/14 02:36:14;;;;;;;16.70;3.63;;;19.30;99.90;;;;;;4970058;28;20094;-53
2022/07/14 02:38:41;;;;;;;15.50;4.47;;;19.40;99.90;;;;;;4969825;28;20043;-50
2022/07/14 02:41:08;;;;;;;12.80;3.53;;;19.40;99.90;;;;;;4969847;28;20058;-54
2022/07/14 02:43:36;;;;;;;15.10;2.88;;;19.40;99.90;;;;;;4969547;28;20047;-50
2022/07/14 02:46:03;;;;;;;10.95;3.03;;;19.50;99.90;;;;;;4968454;28;20101;-52
2022/07/14 02:48:30;;;;;;;13.65;2.60;;;19.40;99.90;;;;;;4969431;28;20047;-55
2022/07/14 02:50:59;;;;;;;17.05;3.75;;;19.40;99.90;;;;;;4968311;28;20058;-53
2022/07/14 02:53:26;;;;;;;8.95;2.83;;;19.40;99.90;;;;;;4969185;28;20047;-53
2022/07/14 02:55:53;;;;;;;15.50;4.22;;;19.40;99.90;;;;;;4969172;28;20466;-54
2022/07/14 02:58:21;;;;;;;15.27;2.97;;;19.40;99.90;;;;;;4959753;28;20458;-55
2022/07/14 03:00:48;;;;;;;12.57;2.70;;;19.40;99.90;;;;;;4969191;28;20050;-52
2022/07/14 03:03:15;;;;;;;11.10;3.63;;;19.40;99.90;;;;;;4969233;28;20105;-55
2022/07/14 03:05:42;;;;;;;14.52;3.00;;;19.40;99.90;;;;;;4969229;28;20059;-54
2022/07/14 03:08:09;;;;;;;13.48;3.38;;;19.40;99.90;;;;;;4969045;28;20101;-54
2022/07/14 03:10:36;;;;;;;11.95;2.53;;;19.40;99.90;;;;;;4971076;28;20074;-55
2022/07/14 03:13:03;;;;;;;15.75;3.25;;;19.50;99.90;;;;;;4971316;28;20549;-54
2022/07/14 03:15:30;;;;;;;19.92;4.40;;;19.40;99.90;;;;;;4970307;28;20051;-54
2022/07/14 03:17:57;;;;;;;9.07;2.65;;;19.40;99.90;;;;;;4971535;28;20051;-55
2022/07/14 03:20:24;;;;;;;11.52;3.35;;;19.40;99.90;;;;;;4971475;28;20054;-52
2022/07/14 03:22:51;;;;;;;14.90;3.05;;;19.30;99.90;;;;;;4960752;28;20557;-53
2022/07/14 03:25:18;;;;;;;14.07;3.50;;;19.20;99.90;;;;;;4971291;28;20495;-54
2022/07/14 03:27:49;;;;;;;10.40;3.20;;;19.20;99.90;;;;;;4971485;28;20049;-54
2022/07/14 03:30:16;;;;;;;17.02;3.78;;;19.20;99.90;;;;;;4971419;28;20282;-54
2022/07/14 03:32:43;;;;;;;14.60;3.70;;;19.20;99.90;;;;;;4970268;28;20058;-53
2022/07/14 03:35:10;;;;;;;12.32;3.13;;;19.20;99.90;;;;;;4970586;28;20125;-53
2022/07/14 03:37:37;;;;;;;10.68;2.95;;;19.20;99.90;;;;;;4969491;28;20100;-55
2022/07/14 03:40:04;;;;;;;18.13;3.72;;;19.20;99.90;;;;;;4970109;28;20059;-54
2022/07/14 03:42:31;;;;;;;12.07;3.20;;;19.20;99.90;;;;;;4970713;28;20082;-55
2022/07/14 03:44:58;;;;;;;11.85;3.28;;;19.30;99.90;;;;;;4971056;28;20054;-52
2022/07/14 03:47:25;;;;;;;10.75;2.55;;;19.30;99.90;;;;;;4970554;28;20089;-51
2022/07/14 03:49:52;;;;;;;12.45;3.95;;;19.40;99.90;;;;;;4970000;28;20118;-54
2022/07/14 03:52:19;;;;;;;11.88;3.35;;;19.40;99.90;;;;;;4969183;28;20128;-55
2022/07/14 03:54:45;;;;;;;9.82;2.88;;;19.40;99.90;;;;;;4970343;28;20057;-56
2022/07/14 03:57:13;;;;;;;15.30;4.50;;;19.40;99.90;;;;;;4969947;28;20454;-56
2022/07/14 03:59:40;;;;;;;7.22;2.28;;;19.40;99.90;;;;;;4970073;28;20093;-55
2022/07/14 04:02:11;;;;;;;13.85;2.55;;;19.40;99.90;;;;;;4970109;28;20190;-53
2022/07/14 04:04:39;;;;;;;13.75;3.30;;;19.50;99.90;;;;;;4967854;28;20053;-55
2022/07/14 04:07:07;;;;;;;16.20;3.35;;;19.50;99.90;;;;;;4970025;28;20395;-54
2022/07/14 04:09:34;;;;;;;11.85;3.10;;;19.50;99.90;;;;;;4970279;28;20154;-53
2022/07/14 04:12:01;;;;;;;11.60;3.22;;;19.40;99.90;;;;;;4968802;28;20047;-54
2022/07/14 04:14:28;;;;;;;15.15;3.38;;;19.50;99.90;;;;;;4970319;28;20461;-55
2022/07/14 04:16:54;;;;;;;11.38;2.83;;;19.50;99.90;;;;;;4970028;28;20051;-55
2022/07/14 04:19:22;;;;;;;8.63;2.83;;;19.50;99.90;;;;;;4970583;28;20039;-53
2022/07/14 04:21:48;;;;;;;11.65;2.78;;;19.50;99.90;;;;;;4970154;28;20063;-55
2022/07/14 04:24:15;;;;;;;17.42;3.55;;;19.50;99.90;;;;;;4970156;28;20082;-55
2022/07/14 04:26:42;;;;;;;13.15;3.55;;;19.50;99.90;;;;;;4970230;28;20046;-53
2022/07/14 04:29:10;;;;;;;17.73;3.53;;;19.60;99.90;;;;;;4970245;28;20047;-55
2022/07/14 04:31:37;;;;;;;7.88;2.70;;;19.60;99.90;;;;;;4970200;28;20050;-55
2022/07/14 04:34:04;;;;;;;17.80;3.58;;;19.50;99.90;;;;;;4970004;28;20047;-55
2022/07/14 04:36:31;;;;;;;12.73;3.10;;;19.50;99.90;;;;;;4969839;28;20105;-56
2022/07/14 04:38:57;;;;;;;9.25;2.65;;;19.50;99.90;;;;;;4970039;28;20047;-55
2022/07/14 04:41:25;;;;;;;12.95;2.75;;;19.40;99.90;;;;;;4969762;28;20505;-54
2022/07/14 04:43:52;;;;;;;15.25;3.47;;;19.50;99.90;;;;;;4969998;28;20051;-54
2022/07/14 04:46:19;;;;;;;13.20;2.92;;;19.50;99.90;;;;;;4969152;28;20051;-53
2022/07/14 04:54:17;;;;;;;17.77;3.75;;;19.50;99.90;;;;;;4962040;28;20050;-55
2022/07/14 04:56:44;;;;;;;17.67;3.10;;;19.50;99.90;;;;;;4969802;28;20743;-55
2022/07/14 04:59:26;;;;;;;18.95;4.00;;;19.60;99.90;;;;;;4961498;28;20074;-54
2022/07/14 05:01:53;;;;;;;18.00;5.85;;;19.60;99.90;;;;;;4968611;28;20101;-56
2022/07/14 05:04:20;;;;;;;15.10;3.47;;;19.60;99.90;;;;;;4959391;28;20089;-54
2022/07/14 05:06:49;;;;;;;16.90;4.05;;;19.60;99.90;;;;;;4969746;28;20046;-54
2022/07/14 05:09:17;;;;;;;10.57;3.47;;;19.60;99.90;;;;;;4625391;28;10000155;-53
2022/07/14 05:11:44;;;;;;;14.73;4.03;;;19.60;99.90;;;;;;4966963;28;20058;-56
2022/07/14 05:14:11;;;;;;;13.02;2.97;;;19.60;99.90;;;;;;4968887;28;20093;-55
2022/07/14 05:16:38;;;;;;;17.30;3.80;;;19.60;99.90;;;;;;4969657;28;20110;-53
2022/07/14 05:19:25;;;;;;;15.15;3.83;;;19.60;99.90;;;;;;4969652;28;20055;-52
2022/07/14 05:21:52;;;;;;;16.45;4.15;;;19.60;99.90;;;;;;4969652;28;20061;-54
2022/07/14 05:24:19;;;;;;;15.23;3.90;;;19.60;99.90;;;;;;4969131;28;20058;-59
2022/07/14 05:26:45;;;;;;;13.32;3.70;;;19.60;99.90;;;;;;4969547;28;20573;-52
2022/07/14 05:29:16;;;;;;;9.63;2.53;;;19.60;99.90;;;;;;4968324;28;20043;-55
2022/07/14 05:31:43;;;;;;;12.15;2.97;;;19.60;99.90;;;;;;4966032;28;20506;-55
2022/07/14 05:34:10;;;;;;;9.40;2.55;;;19.60;99.90;;;;;;4969388;28;20071;-52
2022/07/14 05:36:37;;;;;;;12.38;3.58;;;19.50;99.90;;;;;;4967912;28;20461;-54
2022/07/14 05:39:04;;;;;;;6.93;2.60;;;19.50;99.90;;;;;;4969239;28;20046;-56
2022/07/14 05:41:31;;;;;;;10.10;2.47;;;19.50;99.90;;;;;;4969546;28;20055;-53
2022/07/14 05:43:57;;;;;;;8.50;2.55;;;19.50;99.90;;;;;;4969421;28;20116;-54
2022/07/14 05:46:24;;;;;;;10.88;2.17;;;19.50;99.90;;;;;;4969324;28;20051;-50
2022/07/14 05:48:51;;;;;;;9.13;2.17;;;19.50;99.90;;;;;;4967976;28;20039;-52
2022/07/14 05:51:18;;;;;;;9.38;2.45;;;19.60;99.90;;;;;;4969203;28;20081;-51
2022/07/14 05:53:46;;;;;;;13.13;2.70;;;19.60;99.90;;;;;;4968985;28;20154;-53
2022/07/14 05:56:15;;;;;;;12.00;2.63;;;19.60;99.90;;;;;;4967806;28;20046;-54
2022/07/14 05:58:42;;;;;;;15.25;2.65;;;19.60;99.90;;;;;;4972961;28;20050;-56
2022/07/14 06:01:09;;;;;;;13.25;2.88;;;19.70;99.90;;;;;;4972964;28;20093;-55
2022/07/14 06:03:36;;;;;;;7.47;2.40;;;19.70;99.90;;;;;;4972998;28;20082;-54
2022/07/14 06:06:07;;;;;;;7.65;2.42;;;19.70;99.90;;;;;;4972846;28;20046;-54
2022/07/14 06:08:34;;;;;;;6.18;2.25;;;19.70;99.90;;;;;;4972729;28;20106;-55
2022/07/14 06:11:02;;;;;;;15.13;2.20;;;19.70;99.90;;;;;;4972796;28;20122;-55
2022/07/14 06:13:31;;;;;;;23.75;4.40;;;19.80;99.90;;;;;;4972378;28;20509;-54
2022/07/14 06:15:58;;;;;;;11.10;2.40;;;19.70;99.90;;;;;;4972195;28;20113;-54
2022/07/14 06:18:25;;;;;;;13.30;2.35;;;19.70;99.90;;;;;;4972665;28;20457;-53
2022/07/14 06:20:53;;;;;;;5.90;2.22;;;19.80;99.70;;;;;;4970955;28;20051;-55
2022/07/14 06:23:20;;;;;;;10.65;2.17;;;19.80;99.30;;;;;;4972565;28;20094;-55
2022/07/14 06:25:47;;;;;;;4.47;1.90;;;19.80;99.00;;;;;;4972657;28;20212;-55
2022/07/14 06:28:14;;;;;;;8.50;2.47;;;19.80;98.40;;;;;;4970945;28;20050;-53
2022/07/14 06:30:41;;;;;;;18.17;2.33;;;19.80;98.40;;;;;;4972194;28;20046;-55
2022/07/14 06:33:08;;;;;;;7.05;1.88;;;19.80;98.10;;;;;;4972126;28;20129;-53
2022/07/14 06:35:38;;;;;;;7.80;2.42;;;19.80;98.10;;;;;;4962986;28;20053;-54
2022/07/14 06:38:25;;;;;;;7.03;2.33;;;19.70;97.90;;;;;;4972092;28;20078;-55
2022/07/14 06:40:52;;;;;;;5.03;2.05;;;19.70;97.90;;;;;;4972221;28;20461;-54
2022/07/14 06:43:19;;;;;;;8.07;3.05;;;19.60;97.90;;;;;;4972055;28;20050;-54
2022/07/14 06:45:45;;;;;;;6.78;1.80;;;19.60;97.70;;;;;;4969361;28;20046;-55
2022/07/14 06:48:12;;;;;;;11.70;1.95;;;19.60;97.60;;;;;;4964642;28;20043;-52
2022/07/14 06:50:39;;;;;;;10.43;3.53;;;19.40;97.40;;;;;;4966065;28;20485;-54
2022/07/14 06:53:07;;;;;;;10.27;2.47;;;19.40;97.30;;;;;;4965956;28;20070;-50
2022/07/14 06:55:34;;;;;;;10.60;2.33;;;19.40;97.30;;;;;;4966001;28;20055;-55
2022/07/14 06:58:01;;;;;;;13.15;2.55;;;19.50;97.40;;;;;;4966923;28;20105;-56
2022/07/14 07:00:28;;;;;;;7.03;2.08;;;19.50;97.30;;;;;;4965474;28;20047;-52
2022/07/14 07:02:55;;;;;;;9.75;2.88;;;19.60;97.10;;;;;;4970422;28;20109;-54
2022/07/14 07:08:07;;;;;;;4.90;1.67;;;19.80;96.60;;;;;;4970948;28;20054;-52
2022/07/14 07:10:40;;;;;;;5.95;2.20;;;19.80;96.50;;;;;;4971236;28;20102;-53
2022/07/14 07:13:11;;;;;;;10.70;1.85;;;19.80;96.10;;;;;;4954472;28;20453;-54
2022/07/14 07:15:38;;;;;;;13.95;2.40;;;19.70;95.90;;;;;;4966940;28;20101;-55
2022/07/14 07:18:06;;;;;;;7.55;2.00;;;19.80;95.90;;;;;;4970838;28;20058;-53
2022/07/14 07:20:34;;;;;;;11.45;2.05;;;19.80;95.90;;;;;;4970943;28;20046;-56
2022/07/14 07:23:02;;;;;;;9.23;2.17;;;19.90;95.30;;;;;;4970388;28;20050;-59
2022/07/14 07:25:29;;;;;;;11.20;1.95;;;19.70;95.00;;;;;;4969647;28;20137;-56
2022/07/14 07:27:56;;;;;;;9.00;2.25;;;19.60;95.10;;;;;;4970796;28;20058;-54
2022/07/14 07:30:23;;;;;;;9.00;2.20;;;19.60;95.20;;;;;;4969842;28;20047;-55
2022/07/14 07:32:50;;;;;;;9.63;2.15;;;19.70;95.10;;;;;;4970422;28;20073;-56
2022/07/14 07:35:18;;;;;;;8.70;1.77;;;19.80;95.00;;;;;;4968899;28;20059;-57
2022/07/14 07:37:45;;;;;;;8.07;3.15;;;19.90;94.40;;;;;;4970157;28;20072;-54
2022/07/14 07:40:12;;;;;;;11.55;3.28;;;19.80;94.30;;;;;;4967236;28;20110;-55
2022/07/14 07:42:39;;;;;;;6.63;2.17;;;19.80;94.10;;;;;;4967625;28;20043;-54
2022/07/14 07:45:07;;;;;;;9.35;2.00;;;19.80;93.50;;;;;;4969561;28;20561;-54
2022/07/14 07:47:34;;;;;;;6.88;1.70;;;19.80;93.90;;;;;;4969704;28;20498;-55
2022/07/14 07:50:01;;;;;;;6.85;1.52;;;19.80;93.80;;;;;;4968597;28;20549;-55
2022/07/14 07:52:28;;;;;;;10.50;2.33;;;19.90;93.40;;;;;;4969903;28;20494;-53
2022/07/14 07:54:55;;;;;;;7.18;1.65;;;20.00;93.30;;;;;;4969649;28;20134;-53
2022/07/14 07:57:43;;;;;;;8.43;2.10;;;20.10;93.00;;;;;;4969482;28;20053;-54
2022/07/14 08:00:11;;;;;;;11.57;2.17;;;20.10;92.90;;;;;;4968658;28;20090;-57
2022/07/14 08:02:49;;;;;;;5.97;1.63;;;20.10;92.50;;;;;;4968823;28;20054;-55
2022/07/14 08:05:17;;;;;;;16.55;1.95;;;20.10;91.40;;;;;;4968669;28;20053;-56
2022/07/14 08:08:07;;;;;;;8.48;1.95;;;20.10;91.80;;;;;;4969441;28;20125;-55
2022/07/14 08:10:35;;;;;;;6.47;1.63;;;20.00;91.80;;;;;;4959242;28;20101;-54
2022/07/14 08:13:02;;;;;;;11.88;2.13;;;20.10;91.30;;;;;;4969302;28;20437;-55
2022/07/14 08:15:29;;;;;;;7.30;2.15;;;19.90;91.70;;;;;;4969134;28;20062;-55
2022/07/14 08:17:56;;;;;;;14.02;1.85;;;20.00;91.60;;;;;;4969145;28;20050;-54
2022/07/14 08:20:23;;;;;;;16.83;2.20;;;20.20;91.60;;;;;;4968374;28;20047;-53
2022/07/14 08:22:51;;;;;;;6.35;1.50;;;20.30;91.10;;;;;;4969349;28;20097;-52
2022/07/14 08:25:18;;;;;;;3.50;1.42;;;20.40;90.70;;;;;;4968987;28;20558;-56
2022/07/14 08:27:45;;;;;;;4.30;1.33;;;20.40;91.20;;;;;;4968924;28;20109;-55
2022/07/14 08:30:12;;;;;;;19.65;3.13;;;20.50;90.60;;;;;;4967939;28;20101;-54
2022/07/14 08:32:47;;;;;;;8.38;1.83;;;20.60;90.20;;;;;;4968674;28;20129;-55
2022/07/14 08:35:14;;;;;;;8.93;2.30;;;20.70;89.40;;;;;;4968969;28;20665;-53
2022/07/14 08:37:41;;;;;;;7.10;2.40;;;20.70;89.80;;;;;;4967739;28;20050;-52
2022/07/14 08:40:13;;;;;;;6.68;1.40;;;20.70;88.90;;;;;;4968944;28;20047;-54
2022/07/14 08:42:44;;;;;;;6.57;2.13;;;20.70;89.10;;;;;;4965944;28;20092;-54
2022/07/14 08:45:13;;;;;;;9.20;1.88;;;20.60;86.80;;;;;;4968780;28;20134;-54
2022/07/14 08:47:40;;;;;;;9.80;2.92;;;20.70;87.70;;;;;;4968789;28;20054;-53
2022/07/14 08:50:09;;;;;;;6.57;1.58;;;20.80;87.30;;;;;;4969385;28;20117;-55
2022/07/14 08:52:37;;;;;;;6.40;1.27;;;20.90;86.80;;;;;;4968658;28;20047;-55
2022/07/14 08:55:06;;;;;;;6.25;1.10;;;20.90;85.50;;;;;;4968553;28;20046;-56
2022/07/14 08:57:33;;;;;;;7.45;1.90;;;20.80;84.40;;;;;;4968419;28;20548;-56
2022/07/14 09:00:00;;;;;;;7.45;1.50;;;20.90;83.90;;;;;;4968878;28;20046;-55
2022/07/14 09:02:27;;;;;;;7.78;1.40;;;21.00;84.60;;;;;;4968278;28;20101;-54
2022/07/14 09:04:54;;;;;;;6.55;1.30;;;21.10;84.10;;;;;;4968395;28;20082;-56
2022/07/14 09:07:34;;;;;;;8.68;1.30;;;21.20;83.50;;;;;;4968825;28;20054;-55
2022/07/14 09:10:14;;;;;;;8.93;1.70;;;21.30;80.40;;;;;;4969124;28;20085;-56
2022/07/14 09:12:41;;;;;;;5.22;1.63;;;21.20;80.90;;;;;;4959146;28;20449;-55
2022/07/14 09:17:59;;;;;;;5.20;1.73;;;21.50;81.00;;;;;;4959573;28;20055;-55
2022/07/14 09:20:28;;;;;;;5.53;1.60;;;21.50;75.90;;;;;;4968740;28;20062;-53
2022/07/14 09:22:56;;;;;;;9.50;2.25;;;21.50;80.10;;;;;;4623168;28;9999947;-53
2022/07/14 09:25:23;;;;;;;5.80;1.10;;;21.60;79.40;;;;;;4966069;28;20059;-54
2022/07/14 09:27:50;;;;;;;4.65;1.35;;;21.70;76.90;;;;;;4965975;28;20101;-55
2022/07/14 09:30:17;;;;;;;4.53;1.30;;;21.70;75.20;;;;;;4965905;28;20059;-55
2022/07/14 09:32:47;;;;;;;12.25;1.83;;;21.70;77.40;;;;;;4968084;28;20078;-52
2022/07/14 09:35:17;;;;;;;9.68;1.65;;;21.80;77.00;;;;;;4970128;28;20061;-54
2022/07/14 09:37:44;;;;;;;4.72;1.50;;;21.80;76.40;;;;;;4970047;28;20055;-51
2022/07/14 09:40:22;;;;;;;7.15;1.50;;;21.90;75.40;;;;;;4970194;28;20054;-56
2022/07/14 09:42:53;;;;;;;8.50;1.50;;;21.90;73.30;;;;;;4969550;28;20105;-54
2022/07/14 09:45:27;;;;;;;4.75;1.20;;;22.10;72.70;;;;;;4968595;28;20074;-55
2022/07/14 09:48:08;;;;;;;5.20;1.23;;;21.80;70.70;;;;;;4969894;28;20058;-55
2022/07/14 09:50:36;;;;;;;6.35;1.30;;;21.70;72.60;;;;;;4968569;28;20042;-52
2022/07/14 09:53:10;;;;;;;2.42;1.17;;;22.00;74.50;;;;;;4969329;28;20055;-54
2022/07/14 09:55:39;;;;;;;9.98;1.58;;;22.00;71.20;;;;;;4966965;28;20085;-53
2022/07/14 09:58:07;;;;;;;9.10;1.67;;;22.10;73.10;;;;;;4968284;28;20055;-55
2022/07/14 10:00:34;;;;;;;3.58;1.10;;;22.30;72.10;;;;;;4965749;28;20097;-54
2022/07/14 10:03:04;;;;;;;5.22;1.27;;;22.40;71.80;;;;;;4961275;28;20058;-55
2022/07/14 10:05:34;;;;;;;3.88;1.73;;;22.50;71.00;;;;;;4968851;28;20047;-54
2022/07/14 10:08:03;;;;;;;4.78;1.20;;;22.90;70.30;;;;;;4961819;28;20335;-55
2022/07/14 10:10:33;;;;;;;12.93;2.00;;;23.00;69.60;;;;;;4969072;28;20117;-53
2022/07/14 10:13:01;;;;;;;3.45;1.45;;;23.30;68.40;;;;;;4967842;28;20055;-52
2022/07/14 10:15:37;;;;;;;3.17;1.15;;;23.70;66.40;;;;;;4962814;28;20058;-54
2022/07/14 10:18:04;;;;;;;7.05;1.33;;;23.80;68.20;;;;;;4963000;28;20125;-52
2022/07/14 10:20:31;;;;;;;3.45;1.20;;;24.10;68.10;;;;;;4946954;28;20054;-55
2022/07/14 10:22:57;;;;;;;4.32;1.60;;;24.60;66.70;;;;;;4965410;28;20079;-53
2022/07/14 10:25:25;;;;;;;4.95;1.60;;;24.80;66.60;;;;;;4946373;28;20459;-55
2022/07/14 10:27:52;;;;;;;5.07;1.25;;;25.00;64.70;;;;;;4965226;28;20054;-51
2022/07/14 10:30:18;;;;;;;2.15;1.17;;;25.10;64.40;;;;;;4967676;28;20071;-56
2022/07/14 10:33:02;;;;;;;2.63;0.95;;;25.20;63.60;;;;;;4964817;28;20051;-56
2022/07/14 10:35:32;;;;;;;;;;;25.00;62.30;;;;;;4959868;28;20043;-56
2022/07/14 10:38:18;;;;;;;8.68;1.45;;;25.00;58.50;;;;;;4969111;28;20158;-55
2022/07/14 10:40:47;;;;;;;3.65;1.33;;;25.20;58.60;;;;;;4967474;28;20093;-54
2022/07/14 10:43:19;;;;;;;3.92;1.20;;;25.30;61.00;;;;;;4968019;28;20517;-56
2022/07/14 10:45:50;;;;;;;4.18;1.20;;;24.90;59.60;;;;;;4959129;28;20043;-56
2022/07/14 10:48:32;;;;;;;3.38;0.90;;;25.00;61.70;;;;;;4968100;28;20455;-54
2022/07/14 10:51:14;;;;;;;7.68;0.82;;;25.10;58.80;;;;;;4960737;28;20050;-52
2022/07/14 10:54:07;;;;;;;12.18;1.70;;;25.00;59.00;;;;;;4960683;28;20154;-55
2022/07/14 10:57:09;;;;;;;2.90;0.88;;;25.00;57.50;;;;;;4963738;28;20053;-52
2022/07/14 10:59:36;;;;;;;7.32;1.10;;;25.00;57.60;;;;;;4960859;28;20070;-54
2022/07/14 11:02:12;;;;;;;8.80;1.40;;;25.00;60.70;;;;;;4962338;28;20047;-55
2022/07/14 11:05:04;;;;;;;6.28;1.20;;;24.70;58.30;;;;;;4960212;28;20610;-54
2022/07/14 11:07:52;;;;;;;3.60;0.80;;;24.60;58.80;;;;;;4961326;28;20065;-54
2022/07/14 11:10:19;;;;;;;5.13;0.80;;;24.30;58.00;;;;;;4956374;28;20062;-54
2022/07/14 11:13:04;;;;;;;6.82;2.35;;;23.70;61.00;;;;;;4967103;28;20496;-56
2022/07/14 11:15:35;;;;;;;2.08;0.80;;;23.70;59.70;;;;;;4967078;28;20061;-55
2022/07/14 11:18:17;;;;;;;5.53;1.13;;;23.80;60.80;;;;;;4957817;28;20054;-56
2022/07/14 11:21:03;;;;;;;3.25;0.60;;;24.00;59.70;;;;;;4966141;28;20137;-55
2022/07/14 11:23:58;;;;;;;4.53;1.10;;;24.10;60.10;;;;;;4957719;28;20125;-54
2022/07/14 11:26:40;;;;;;;6.45;1.27;;;24.00;57.30;;;;;;4986209;28;20080;-55
2022/07/14 11:29:14;;;;;;;5.88;1.15;;;23.80;58.60;;;;;;4959469;28;20051;-55
2022/07/14 11:31:48;;;;;;;1.88;0.80;;;23.90;60.10;;;;;;4962760;28;21406;-55
2022/07/14 11:37:11;;;;;;;3.45;0.93;;;23.60;57.50;;;;;;4960989;28;20441;-56
2022/07/14 11:39:58;;;;;;;3.97;0.90;;;23.60;59.60;;;;;;4959120;28;20079;-54
2022/07/14 11:42:25;;;;;;;2.72;0.80;;;23.70;59.70;;;;;;4962762;28;20125;-52
2022/07/14 11:44:52;;;;;;;5.35;0.90;;;23.80;59.60;;;;;;4956544;28;20054;-53
2022/07/14 11:47:23;;;;;;;1.98;0.77;;;23.90;59.30;;;;;;4963150;28;20054;-54
2022/07/14 11:49:55;;;;;;;2.90;0.88;;;23.70;57.00;;;;;;4966953;28;20039;-55
2022/07/14 11:52:29;;;;;;;1.85;0.70;;;23.60;57.40;;;;;;4965515;28;20521;-53
2022/07/14 11:54:57;;;;;;;5.32;1.10;;;23.60;57.20;;;;;;4955232;28;20120;-54
2022/07/14 11:57:23;;;;;;;3.53;0.77;;;23.70;58.20;;;;;;4965771;28;20553;-54
2022/07/14 11:59:50;;;;;;;2.08;0.90;;;23.90;58.00;;;;;;4966544;28;20077;-54
2022/07/14 12:02:18;;;;;;;3.65;1.10;;;23.90;57.20;;;;;;4966644;28;20113;-55
2022/07/14 12:04:53;;;;;;;1.67;0.63;;;24.00;57.70;;;;;;4966712;28;20469;-52
2022/07/14 12:07:21;;;;;;;13.93;1.38;;;24.10;56.20;;;;;;4966414;28;20057;-56
2022/07/14 12:09:49;;;;;;;4.78;0.88;;;24.30;56.70;;;;;;4965527;28;20090;-56
2022/07/14 12:12:17;;;;;;;3.22;0.70;;;24.20;55.00;;;;;;4965846;28;20568;-53
2022/07/14 12:14:52;;;;;;;2.90;1.00;;;24.10;56.60;;;;;;4965913;28;20058;-55
2022/07/14 12:17:23;;;;;;;4.28;0.82;;;24.00;55.50;;;;;;4966297;28;20752;-54
2022/07/14 12:19:50;;;;;;;1.08;0.75;;;24.00;56.50;;;;;;4966218;28;20502;-54
2022/07/14 12:22:17;;;;;;;4.13;0.98;;;24.10;56.60;;;;;;4965720;28;20584;-55
2022/07/14 12:24:45;;;;;;;5.18;0.88;;;24.40;56.30;;;;;;4966262;28;20051;-55
2022/07/14 12:27:12;;;;;;;1.38;1.02;;;24.50;54.00;;;;;;4965958;28;20585;-56
2022/07/14 12:29:48;;;;;;;7.80;1.20;;;24.40;55.00;;;;;;4965850;28;20430;-57
2022/07/14 12:32:16;;;;;;;5.68;1.33;;;24.60;53.40;;;;;;4964820;28;20082;-53
2022/07/14 12:34:43;;;;;;;3.10;0.95;;;24.60;54.50;;;;;;4956187;28;20047;-52
2022/07/14 12:37:10;;;;;;;5.05;1.50;;;24.80;54.00;;;;;;4948643;28;20146;-56
2022/07/14 12:39:37;;;;;;;4.55;0.82;;;24.80;54.00;;;;;;4963972;28;20074;-55
2022/07/14 12:42:04;;;;;;;5.72;1.17;;;24.90;52.50;;;;;;4963790;28;20051;-54
2022/07/14 12:44:31;;;;;;;5.20;0.95;;;24.60;53.90;;;;;;4965362;28;20525;-53
2022/07/14 12:47:05;;;;;;;3.85;0.80;;;24.70;53.60;;;;;;4965117;28;20098;-53
2022/07/14 12:49:45;;;;;;;4.50;1.13;;;24.80;51.30;;;;;;4965193;28;20050;-55
2022/07/14 12:52:13;;;;;;;1.08;0.60;;;25.00;50.90;;;;;;4966010;28;20047;-52
2022/07/14 12:54:40;;;;;;;2.42;1.10;;;24.90;52.40;;;;;;4964050;28;20047;-54
2022/07/14 12:57:32;;;;;;;3.00;1.10;;;25.00;51.80;;;;;;4963729;28;20753;-54
2022/07/14 12:59:59;;;;;;;7.97;1.25;;;24.90;51.70;;;;;;4957310;28;20450;-54
2022/07/14 13:02:27;;;;;;;6.28;1.00;;;24.80;52.10;;;;;;4962807;28;20047;-55
2022/07/14 13:05:01;;;;;;;3.92;1.23;;;24.90;53.00;;;;;;4961821;28;20038;-56
2022/07/14 13:07:30;;;;;;;1.88;0.77;;;25.10;51.70;;;;;;4953807;28;20058;-56
2022/07/14 13:10:13;;;;;;;3.30;1.00;;;25.10;52.10;;;;;;4963731;28;20569;-55